logo tempoitalia

Diretta Meteo Del Rio, Stati Uniti (USA)lunedì 31 agosto ore 00:53

Mappa
Sereno 31 °C Sereno 24 Ore: T.min 26 T.max 38
Ponente Est/Sud-Est Km/h 20.3 Punto di rugiada: 20 °C Umidità: 52% Visibilità: 10 Km
Il sole sorge alle: 07:20 Il sole tramonta alle: 20:06
31 Agosto 2026 00:53 tempo osservato: Sereno Sereno 31 52 1013 vento: Nord E/SE 20.3
30 Agosto 2026 23:53 tempo osservato: Sereno Sereno 32 43 1012 vento: Nord E 20.3
30 Agosto 2026 22:53 tempo osservato: Sereno Sereno 32 40 1012 vento: Nord E 14.8
30 Agosto 2026 21:53 tempo osservato: Sereno Sereno 33 38 1011 vento: Nord E 13
30 Agosto 2026 20:53 tempo osservato: Sereno Sereno 34 36 1011 vento: Nord E 16.7
30 Agosto 2026 19:53 tempo osservato: Sereno Sereno 36 30 1010 vento: Nord E 18.5
30 Agosto 2026 18:53 tempo osservato: Poco Nuvoloso Poco Nuvoloso 37 28 1010 vento: Nord E 22.2
30 Agosto 2026 17:53 tempo osservato: Poco Nuvoloso Poco Nuvoloso 38 29 1010 vento: Nord E/SE 18.5
30 Agosto 2026 16:53 tempo osservato: Nuvoloso Nuvoloso 37 32 1010 vento: Nord E/SE 18.5
30 Agosto 2026 15:53 tempo osservato: Sereno Sereno 37 32 1011 vento: Nord SE 18.5
30 Agosto 2026 14:53 tempo osservato: Sereno Sereno 37 35 1012 vento: Nord SE 22.2
30 Agosto 2026 13:53 tempo osservato: Sereno Sereno 35 44 1014 vento: Nord E/SE 18.5
30 Agosto 2026 12:53 tempo osservato: Sereno Sereno 34 49 1015 vento: Nord E/SE 22.2
30 Agosto 2026 11:53 tempo osservato: Sereno Sereno 32 55 1016 vento: Nord SE 16.7
30 Agosto 2026 10:53 tempo osservato: Sereno Sereno 29 66 1016 vento: Nord SE 14.8
30 Agosto 2026 09:53 tempo osservato: Sereno Sereno 28 69 1016 vento: Nord E/SE 14.8
30 Agosto 2026 08:53 tempo osservato: Sereno Sereno 26 78 1016 vento: Nord E/SE 20.3
30 Agosto 2026 07:53 tempo osservato: Sereno Sereno 26 73 1016 vento: Nord E 13
30 Agosto 2026 06:53 tempo osservato: Sereno Sereno 26 73 1015 vento: Nord E 11.1
30 Agosto 2026 05:53 tempo osservato: Sereno Sereno 27 69 1015 vento: Nord E 14.8
30 Agosto 2026 04:53 tempo osservato: Sereno Sereno 27 69 1014 vento: Nord E 14.8
30 Agosto 2026 03:53 tempo osservato: Sereno Sereno 28 65 1014 vento: Nord E 11.1
30 Agosto 2026 02:53 tempo osservato: Sereno Sereno 28 65 1014 vento: Nord E/SE 16.7
30 Agosto 2026 01:53 tempo osservato: Sereno Sereno 29 62 1015 vento: Nord E/SE 18.5